Yasemin — 9HA2114 — position and weather

sailwx.info

Track history (hours):
 
Tides and Currents Weather Stations Pressure Air Temp Water Temp Dewpoint Dewpoint Depression Visibility Wind Speed Wind Dir Waves Ship Positions

Yasemin

Last reported at 2018-Feb-17 23:00 UTC. Time now 2018-Feb-17 23:03 UTC.
Position N 43°20' W 003°02'.

Length 105 m; draft 7.2 m.

Type: Cargo ship. MMSI: 249988000.

Date/timePositionNaut miles runAvg speedWind from/ knotsBaromVisibWave heightAir tempDewpointWater temp
2018-Feb-17 23:00N 43°20' W 003°02'0 0.0
2018-Feb-17 22:30N 43°20' W 003°02'0 0.0
2018-Feb-17 22:00N 43°20' W 003°02'0 0.0
2018-Feb-17 21:30N 43°20' W 003°02'0 0.0
2018-Feb-17 21:00N 43°20' W 003°02'0 0.0
2018-Feb-17 20:30N 43°20' W 003°02'0 0.0
2018-Feb-17 19:57N 43°20' W 003°02'0 0.0
2018-Feb-17 19:27N 43°20' W 003°02'0 0.0
2018-Feb-17 19:00N 43°20' W 003°02'0 0.0
2018-Feb-17 18:30N 43°20' W 003°02'0 0.0
2018-Feb-17 18:00N 43°20' W 003°02'0 0.0
2018-Feb-17 17:30N 43°20' W 003°02'0 0.0
2018-Feb-17 17:00N 43°20' W 003°02'0 0.0
2018-Feb-17 16:27N 43°20' W 003°02'0 0.0
2018-Feb-17 16:00N 43°20' W 003°02'0 0.0
2018-Feb-17 15:30N 43°20' W 003°02'0 0.0
2018-Feb-17 15:00N 43°20' W 003°02'0 0.0
2018-Feb-17 14:30N 43°20' W 003°02'0 0.0
2018-Feb-17 14:00N 43°20' W 003°02'0 0.0
2018-Feb-17 13:30N 43°20' W 003°02'0 0.0
2018-Feb-17 13:00N 43°20' W 003°02'0 0.0
2018-Feb-17 12:30N 43°20' W 003°02'0 0.0
2018-Feb-17 12:00N 43°20' W 003°02'0 0.5
2018-Feb-17 11:30N 43°20' W 003°02'3 5.8
2018-Feb-17 11:00N 43°22' W 003°04'3 6.2
2018-Feb-17 10:30N 43°25' W 003°06'3 5.2
2018-Feb-17 10:00N 43°28' W 003°06'4 6.4
2018-Feb-17 09:27N 43°30' W 003°03'4 8.4
2018-Feb-17 09:00N 43°33' W 002°59'4 7.2
2018-Feb-17 08:30N 43°33' W 002°54'4 7.9
2018-Feb-17 08:00N 43°34' W 002°49'4 8.0
2018-Feb-17 07:30N 43°34' W 002°43'2 3.3
2018-Feb-17 07:00N 43°35' W 002°45'5 9.6
2018-Feb-17 06:30N 43°35' W 002°52'5 9.6
2018-Feb-17 06:00N 43°35' W 002°58'5 9.5
2018-Feb-17 05:30N 43°34' W 003°05'5 9.8
2018-Feb-17 05:00N 43°34' W 003°12'510.0
2018-Feb-17 04:30N 43°34' W 003°18'510.2
2018-Feb-17 04:00N 43°33' W 003°25'510.2
2018-Feb-17 03:30N 43°34' W 003°32'510.4
2018-Feb-17 03:00N 43°35' W 003°39'5 9.9
2018-Feb-17 02:30N 43°35' W 003°46'5 9.7
2018-Feb-17 02:00N 43°35' W 003°53'4 0.5
2018-Feb-16 17:18N 43°38' W 003°49'3 9.0
2018-Feb-16 16:59N 43°37' W 003°45'4 8.8
2018-Feb-16 16:30N 43°36' W 003°40'4 8.8
2018-Feb-16 16:00N 43°35' W 003°34'4 8.6
2018-Feb-16 15:30N 43°35' W 003°28'4 8.8
2018-Feb-16 15:00N 43°34' W 003°22'4 8.6
2018-Feb-16 14:30N 43°32' W 003°16'5 9.4
2018-Feb-16 14:00N 43°29' W 003°11'2 4.2
2018-Feb-16 13:30N 43°29' W 003°08'610.5
2018-Feb-16 12:59N 43°35' W 003°10'24710.5
2018-Feb-15 13:26N 47°33' W 004°44'4 9.9
2018-Feb-15 13:00N 47°37' W 004°44'6 9.6
2018-Feb-15 12:25N 47°42' W 004°45'410.2
2018-Feb-15 12:00N 47°45' W 004°50'510.1
2018-Feb-15 11:30N 47°47' W 004°57'5 9.8
2018-Feb-15 10:57N 47°50' W 005°03'4 9.9
2018-Feb-15 10:30N 47°53' W 005°08'610.5
2018-Feb-15 09:58N 47°57' W 005°14'610.6
2018-Feb-15 09:24N 47°60' W 005°22'410.9
2018-Feb-15 09:00N 48°02' W 005°28'611.0
2018-Feb-15 08:27N 48°06' W 005°35'511.1
2018-Feb-15 07:59N 48°09' W 005°41'611.4
2018-Feb-15 07:28N 48°14' W 005°46'611.6
2018-Feb-15 06:58N 48°19' W 005°50'95 9.0
2018-Feb-14 20:23N 49°54' W 006°02'410.4
2018-Feb-14 20:00N 49°58' W 006°02'810.5
2018-Feb-14 19:16N 50°06' W 006°01'310.4
2018-Feb-14 19:00N 50°09' W 006°01'5 9.8
2018-Feb-14 18:30N 50°13' W 005°60'4 8.8
2018-Feb-14 18:00N 50°17' W 005°56'4 8.7
2018-Feb-14 17:30N 50°20' W 005°50'8 8.0
2018-Feb-14 16:31N 50°19' W 005°38'0 8.9
2018-Feb-14 16:29N 50°19' W 005°38'5 8.5
2018-Feb-14 15:57N 50°16' W 005°31'3 5.7
2018-Feb-14 15:30N 50°15' W 005°28'0 0.0
2018-Feb-14 14:08N 50°15' W 005°28'0 0.1
2018-Feb-14 13:41N 50°15' W 005°28'0 0.0
2018-Feb-14 13:20N 50°15' W 005°28'0 0.0
2018-Feb-14 12:50N 50°15' W 005°28'0 0.0
2018-Feb-14 12:26N 50°15' W 005°28'0 0.1
2018-Feb-14 11:56N 50°15' W 005°28'0 0.1
2018-Feb-14 11:29N 50°15' W 005°28'0 0.1
2018-Feb-14 10:59N 50°15' W 005°28'0 0.1
2018-Feb-14 10:29N 50°15' W 005°28'0 0.1
2018-Feb-14 09:59N 50°15' W 005°28'0 0.1
2018-Feb-14 09:26N 50°15' W 005°28'0 0.0
2018-Feb-14 08:56N 50°15' W 005°28'0 0.0
2018-Feb-14 08:29N 50°15' W 005°28'0 0.0
2018-Feb-14 07:53N 50°15' W 005°28'0 0.1
2018-Feb-14 07:26N 50°15' W 005°28'0 0.7
2018-Feb-14 06:59N 50°15' W 005°28'1 0.9
2018-Feb-14 06:23N 50°15' W 005°27'0 0.1
2018-Feb-14 05:59N 50°15' W 005°27'0 0.2
2018-Feb-14 05:26N 50°15' W 005°27'0 0.0
2018-Feb-14 04:59N 50°15' W 005°27'0 0.1
2018-Feb-14 04:26N 50°15' W 005°27'0 0.1
2018-Feb-14 03:59N 50°15' W 005°27'0 0.0
2018-Feb-14 03:29N 50°15' W 005°27'0 0.0
2018-Feb-14 02:59N 50°15' W 005°27'0 0.0
2018-Feb-14 02:29N 50°15' W 005°27'0 0.0
2018-Feb-14 01:56N 50°15' W 005°27'0 0.1
2018-Feb-14 01:29N 50°15' W 005°27'0 0.0
2018-Feb-14 00:59N 50°15' W 005°27'0 0.0
2018-Feb-14 00:23N 50°15' W 005°27'0 0.0
2018-Feb-13 23:41N 50°15' W 005°27'0 0.0
2018-Feb-13 23:30N 50°15' W 005°27'0 0.7
2018-Feb-13 23:00N 50°15' W 005°27'2 3.7
2018-Feb-13 22:30N 50°16' W 005°29'4 8.0
2018-Feb-13 22:00N 50°19' W 005°24'4 8.2
2018-Feb-13 21:30N 50°22' W 005°20'510.5
2018-Feb-13 21:00N 50°27' W 005°24'510.6
2018-Feb-13 20:30N 50°32' W 005°27'510.3
2018-Feb-13 20:00N 50°37' W 005°30'5 9.6
2018-Feb-13 19:30N 50°40' W 005°24'5 9.5
2018-Feb-13 19:00N 50°43' W 005°18'5 9.1
2018-Feb-13 18:30N 50°45' W 005°12'4 8.7
2018-Feb-13 18:00N 50°48' W 005°06'4 8.1
2018-Feb-13 17:30N 50°49' W 005°01'4 8.1
2018-Feb-13 17:00N 50°51' W 004°55'4 7.8
2018-Feb-13 16:30N 50°52' W 004°49'4 7.4
2018-Feb-13 16:00N 50°53' W 004°43'3 5.7
2018-Feb-13 15:30N 50°56' W 004°42'5 9.9
2018-Feb-13 15:00N 51°01' W 004°45'3 5.7
2018-Feb-13 14:30N 51°03' W 004°42'3 6.4
2018-Feb-13 14:00N 51°04' W 004°38'3 6.3
2018-Feb-13 13:30N 51°06' W 004°33'4 7.1
2018-Feb-13 13:00N 51°08' W 004°29'4 7.8
2018-Feb-13 12:30N 51°10' W 004°23'4 7.6
2018-Feb-13 11:55N 51°12' W 004°17'3610.0
2018-Feb-13 08:21N 51°20' W 003°21'3 9.9
2018-Feb-13 08:00N 51°20' W 003°16'2 4.2
2018-Feb-13 07:29N 51°22' W 003°18'0 0.2
2018-Feb-13 07:00N 51°22' W 003°18'1 2.5
2018-Feb-13 06:30N 51°22' W 003°16'6 9.0
2018-Feb-13 05:51N 51°24' W 003°07'3 9.2
2018-Feb-13 05:30N 51°26' W 003°03'4 8.4
2018-Feb-13 05:00N 51°30' W 002°60'3 6.0
2018-Feb-13 04:30N 51°33' W 002°59'1 1.4
2018-Feb-13 03:48N 51°33' W 002°58'0 0.0
2018-Feb-13 03:30N 51°33' W 002°58'0 0.0
2018-Feb-12 18:15N 51°33' W 002°58'0 0.0
2018-Feb-12 17:45N 51°33' W 002°58'0 0.0
2018-Feb-12 17:27N 51°33' W 002°58'0 0.0
2018-Feb-12 16:57N 51°33' W 002°58'0 0.0
2018-Feb-12 16:30N 51°33' W 002°58'0 0.0
2018-Feb-12 15:00N 51°33' W 002°58'0 0.0
2018-Feb-12 14:30N 51°33' W 002°58'0 0.0
2018-Feb-12 14:00N 51°33' W 002°58'0 0.0
2018-Feb-12 13:30N 51°33' W 002°58'0 0.0
2018-Feb-12 13:00N 51°33' W 002°58'0 0.0
2018-Feb-12 12:30N 51°33' W 002°58'0 0.0
2018-Feb-12 12:00N 51°33' W 002°58'0 0.0
2018-Feb-12 11:30N 51°33' W 002°58'0 0.0
2018-Feb-12 11:00N 51°33' W 002°58'0 0.0
2018-Feb-12 10:30N 51°33' W 002°58'0 0.0
2018-Feb-12 10:00N 51°33' W 002°58'0 0.0
2018-Feb-12 09:30N 51°33' W 002°58'0 0.0
2018-Feb-12 09:00N 51°33' W 002°58'0 0.0
2018-Feb-12 08:30N 51°33' W 002°58'0 0.0
2018-Feb-12 08:00N 51°33' W 002°58'0 0.0
2018-Feb-12 07:30N 51°33' W 002°58'0 0.0
2018-Feb-12 04:42N 51°33' W 002°58'0 0.0
2018-Feb-12 04:30N 51°33' W 002°58'0 0.0
2018-Feb-12 03:54N 51°33' W 002°58'0 0.0
2018-Feb-12 01:57N 51°33' W 002°58'0 0.0
2018-Feb-12 00:57N 51°33' W 002°58'0 0.0
2018-Feb-12 00:27N 51°33' W 002°58'0 0.0
2018-Feb-11 23:57N 51°33' W 002°58'0 0.0
2018-Feb-11 23:27N 51°33' W 002°58'0 0.0
2018-Feb-11 22:51N 51°33' W 002°58'0 0.0
2018-Feb-11 22:21N 51°33' W 002°58'0 0.0
2018-Feb-11 22:00N 51°33' W 002°58'0 0.0
2018-Feb-11 21:24N 51°33' W 002°58'0 0.0
2018-Feb-11 20:51N 51°33' W 002°58'0 0.0
2018-Feb-11 20:27N 51°33' W 002°58'0 0.0
2018-Feb-11 19:57N 51°33' W 002°58'0 0.0
2018-Feb-11 19:27N 51°33' W 002°58'0 0.0
2018-Feb-11 19:00N 51°33' W 002°58'0 0.0
2018-Feb-11 13:42N 51°33' W 002°58'0 0.0
2018-Feb-11 13:30N 51°33' W 002°58'0 0.0
2018-Feb-11 13:00N 51°33' W 002°58'0 0.0
2018-Feb-11 11:42N 51°33' W 002°58'0 0.0
2018-Feb-11 11:24N 51°33' W 002°58'0 0.0
2018-Feb-11 10:54N 51°33' W 002°58'0 0.0
2018-Feb-11 10:30N 51°33' W 002°58'0 0.0
2018-Feb-11 10:00N 51°33' W 002°58'0 0.0
2018-Feb-11 09:30N 51°33' W 002°58'0 0.0
2018-Feb-11 09:00N 51°33' W 002°58'0 0.0
2018-Feb-11 08:24N 51°33' W 002°58'0 0.0
2018-Feb-11 08:00N 51°33' W 002°58'0 0.0
2018-Feb-11 07:30N 51°33' W 002°58'0 0.0
2018-Feb-11 06:30N 51°33' W 002°58'0 0.0
2018-Feb-11 03:09N 51°33' W 002°58'0 0.0
2018-Feb-10 23:30N 51°33' W 002°58'0 0.0
2018-Feb-10 22:48N 51°33' W 002°58'0 0.0
2018-Feb-10 22:18N 51°33' W 002°58'0 0.0
2018-Feb-10 20:00N 51°33' W 002°58'0 0.0
2018-Feb-10 15:45N 51°33' W 002°58'0 0.0
2018-Feb-10 12:42N 51°33' W 002°58'0 0.0
2018-Feb-10 12:30N 51°33' W 002°58'0 0.0
2018-Feb-10 12:00N 51°33' W 002°58'0 0.0
2018-Feb-10 11:30N 51°33' W 002°58'0 0.0
2018-Feb-10 11:00N 51°33' W 002°58'0 0.0
2018-Feb-10 10:30N 51°33' W 002°58'0 0.0
2018-Feb-10 10:00N 51°33' W 002°58'0 0.0
2018-Feb-10 09:30N 51°33' W 002°58'0 0.0
2018-Feb-10 08:54N 51°33' W 002°58'0 0.0
2018-Feb-10 08:30N 51°33' W 002°58'0 0.0
2018-Feb-10 08:00N 51°33' W 002°58'0 0.0
2018-Feb-10 07:30N 51°33' W 002°58'0 0.0
2018-Feb-10 07:00N 51°33' W 002°58'0 0.0
2018-Feb-10 06:30N 51°33' W 002°58'0 0.0
2018-Feb-10 06:00N 51°33' W 002°58'0 0.0
2018-Feb-10 05:30N 51°33' W 002°58'0 0.0
2018-Feb-10 05:00N 51°33' W 002°58'0 0.0
2018-Feb-10 04:30N 51°33' W 002°58'0 0.0
2018-Feb-10 04:00N 51°33' W 002°58'0 0.0
2018-Feb-10 03:30N 51°33' W 002°58'0 0.0
2018-Feb-10 03:00N 51°33' W 002°58'0 0.0
2018-Feb-10 02:30N 51°33' W 002°58'0 0.0
2018-Feb-10 02:00N 51°33' W 002°58'0 0.0
2018-Feb-10 01:30N 51°33' W 002°58'0 0.0
2018-Feb-10 01:00N 51°33' W 002°58'0 0.0
2018-Feb-10 00:30N 51°33' W 002°58'0 0.0
2018-Feb-10 00:00N 51°33' W 002°58'0 0.0
2018-Feb-09 23:30N 51°33' W 002°58'0 0.0
2018-Feb-09 23:00N 51°33' W 002°58'0 0.0
2018-Feb-09 22:45N 51°33' W 002°58'79 2.2
2018-Feb-08 10:30N 50°56' W 004°49'713.2
2018-Feb-08 10:00N 50°52' W 004°57'1313.2
2018-Feb-08 09:00N 50°43' W 005°12'713.2
2018-Feb-08 08:30N 50°39' W 005°20'713.2
2018-Feb-08 08:00N 50°34' W 005°28'613.0
2018-Feb-08 07:30N 50°30' W 005°36'612.9
2018-Feb-08 07:00N 50°26' W 005°43'612.8
2018-Feb-08 06:30N 50°21' W 005°51'46 8.1
2018-Feb-08 00:45N 49°54' W 004°52'411.6
2018-Feb-08 00:24N 49°55' W 004°46'511.4
2018-Feb-07 23:59N 49°56' W 004°39'511.0
2018-Feb-07 23:30N 49°58' W 004°32'511.0
2018-Feb-07 23:00N 49°59' W 004°23'  
Track history (hours):
 
Tides and Currents Weather Stations Pressure Air Temp Water Temp Dewpoint Dewpoint Depression Visibility Wind Speed Wind Dir Waves Ship Positions

Yasemin

Last reported at 2018-Feb-17 23:00 UTC. Time now 2018-Feb-17 23:03 UTC.
Position N 43°20' W 003°02'.

Length 105 m; draft 7.2 m.

Type: Cargo ship. MMSI: 249988000.

Date/timePositionNaut miles runAvg speedWind from/ knotsBaromVisibWave heightAir tempDewpointWater temp
2018-Feb-17 23:00N 43°20' W 003°02'0 0.0
2018-Feb-17 22:30N 43°20' W 003°02'0 0.0
2018-Feb-17 22:00N 43°20' W 003°02'0 0.0
2018-Feb-17 21:30N 43°20' W 003°02'0 0.0
2018-Feb-17 21:00N 43°20' W 003°02'0 0.0
2018-Feb-17 20:30N 43°20' W 003°02'0 0.0
2018-Feb-17 19:57N 43°20' W 003°02'0 0.0
2018-Feb-17 19:27N 43°20' W 003°02'0 0.0
2018-Feb-17 19:00N 43°20' W 003°02'0 0.0
2018-Feb-17 18:30N 43°20' W 003°02'0 0.0
2018-Feb-17 18:00N 43°20' W 003°02'0 0.0
2018-Feb-17 17:30N 43°20' W 003°02'0 0.0
2018-Feb-17 17:00N 43°20' W 003°02'0 0.0
2018-Feb-17 16:27N 43°20' W 003°02'0 0.0
2018-Feb-17 16:00N 43°20' W 003°02'0 0.0
2018-Feb-17 15:30N 43°20' W 003°02'0 0.0
2018-Feb-17 15:00N 43°20' W 003°02'0 0.0
2018-Feb-17 14:30N 43°20' W 003°02'0 0.0
2018-Feb-17 14:00N 43°20' W 003°02'0 0.0
2018-Feb-17 13:30N 43°20' W 003°02'0 0.0
2018-Feb-17 13:00N 43°20' W 003°02'0 0.0
2018-Feb-17 12:30N 43°20' W 003°02'0 0.0
2018-Feb-17 12:00N 43°20' W 003°02'0 0.5
2018-Feb-17 11:30N 43°20' W 003°02'3 5.8
2018-Feb-17 11:00N 43°22' W 003°04'3 6.2
2018-Feb-17 10:30N 43°25' W 003°06'3 5.2
2018-Feb-17 10:00N 43°28' W 003°06'4 6.4
2018-Feb-17 09:27N 43°30' W 003°03'4 8.4
2018-Feb-17 09:00N 43°33' W 002°59'4 7.2
2018-Feb-17 08:30N 43°33' W 002°54'4 7.9
2018-Feb-17 08:00N 43°34' W 002°49'4 8.0
2018-Feb-17 07:30N 43°34' W 002°43'2 3.3
2018-Feb-17 07:00N 43°35' W 002°45'5 9.6
2018-Feb-17 06:30N 43°35' W 002°52'5 9.6
2018-Feb-17 06:00N 43°35' W 002°58'5 9.5
2018-Feb-17 05:30N 43°34' W 003°05'5 9.8
2018-Feb-17 05:00N 43°34' W 003°12'510.0
2018-Feb-17 04:30N 43°34' W 003°18'510.2
2018-Feb-17 04:00N 43°33' W 003°25'510.2
2018-Feb-17 03:30N 43°34' W 003°32'510.4
2018-Feb-17 03:00N 43°35' W 003°39'5 9.9
2018-Feb-17 02:30N 43°35' W 003°46'5 9.7
2018-Feb-17 02:00N 43°35' W 003°53'4 0.5
2018-Feb-16 17:18N 43°38' W 003°49'3 9.0
2018-Feb-16 16:59N 43°37' W 003°45'4 8.8
2018-Feb-16 16:30N 43°36' W 003°40'4 8.8
2018-Feb-16 16:00N 43°35' W 003°34'4 8.6
2018-Feb-16 15:30N 43°35' W 003°28'4 8.8
2018-Feb-16 15:00N 43°34' W 003°22'4 8.6
2018-Feb-16 14:30N 43°32' W 003°16'5 9.4
2018-Feb-16 14:00N 43°29' W 003°11'2 4.2
2018-Feb-16 13:30N 43°29' W 003°08'610.5
2018-Feb-16 12:59N 43°35' W 003°10'24710.5
2018-Feb-15 13:26N 47°33' W 004°44'4 9.9
2018-Feb-15 13:00N 47°37' W 004°44'6 9.6
2018-Feb-15 12:25N 47°42' W 004°45'410.2
2018-Feb-15 12:00N 47°45' W 004°50'510.1
2018-Feb-15 11:30N 47°47' W 004°57'5 9.8
2018-Feb-15 10:57N 47°50' W 005°03'4 9.9
2018-Feb-15 10:30N 47°53' W 005°08'610.5
2018-Feb-15 09:58N 47°57' W 005°14'610.6
2018-Feb-15 09:24N 47°60' W 005°22'410.9
2018-Feb-15 09:00N 48°02' W 005°28'611.0
2018-Feb-15 08:27N 48°06' W 005°35'511.1
2018-Feb-15 07:59N 48°09' W 005°41'611.4
2018-Feb-15 07:28N 48°14' W 005°46'611.6
2018-Feb-15 06:58N 48°19' W 005°50'95 9.0
2018-Feb-14 20:23N 49°54' W 006°02'410.4
2018-Feb-14 20:00N 49°58' W 006°02'810.5
2018-Feb-14 19:16N 50°06' W 006°01'310.4
2018-Feb-14 19:00N 50°09' W 006°01'5 9.8
2018-Feb-14 18:30N 50°13' W 005°60'4 8.8
2018-Feb-14 18:00N 50°17' W 005°56'4 8.7
2018-Feb-14 17:30N 50°20' W 005°50'8 8.0
2018-Feb-14 16:31N 50°19' W 005°38'0 8.9
2018-Feb-14 16:29N 50°19' W 005°38'5 8.5
2018-Feb-14 15:57N 50°16' W 005°31'3 5.7
2018-Feb-14 15:30N 50°15' W 005°28'0 0.0
2018-Feb-14 14:08N 50°15' W 005°28'0 0.1
2018-Feb-14 13:41N 50°15' W 005°28'0 0.0
2018-Feb-14 13:20N 50°15' W 005°28'0 0.0
2018-Feb-14 12:50N 50°15' W 005°28'0 0.0
2018-Feb-14 12:26N 50°15' W 005°28'0 0.1
2018-Feb-14 11:56N 50°15' W 005°28'0 0.1
2018-Feb-14 11:29N 50°15' W 005°28'0 0.1
2018-Feb-14 10:59N 50°15' W 005°28'0 0.1
2018-Feb-14 10:29N 50°15' W 005°28'0 0.1
2018-Feb-14 09:59N 50°15' W 005°28'0 0.1
2018-Feb-14 09:26N 50°15' W 005°28'0 0.0
2018-Feb-14 08:56N 50°15' W 005°28'0 0.0
2018-Feb-14 08:29N 50°15' W 005°28'0 0.0
2018-Feb-14 07:53N 50°15' W 005°28'0 0.1
2018-Feb-14 07:26N 50°15' W 005°28'0 0.7
2018-Feb-14 06:59N 50°15' W 005°28'1 0.9
2018-Feb-14 06:23N 50°15' W 005°27'0 0.1
2018-Feb-14 05:59N 50°15' W 005°27'0 0.2
2018-Feb-14 05:26N 50°15' W 005°27'0 0.0
2018-Feb-14 04:59N 50°15' W 005°27'0 0.1
2018-Feb-14 04:26N 50°15' W 005°27'0 0.1
2018-Feb-14 03:59N 50°15' W 005°27'0 0.0
2018-Feb-14 03:29N 50°15' W 005°27'0 0.0
2018-Feb-14 02:59N 50°15' W 005°27'0 0.0
2018-Feb-14 02:29N 50°15' W 005°27'0 0.0
2018-Feb-14 01:56N 50°15' W 005°27'0 0.1
2018-Feb-14 01:29N 50°15' W 005°27'0 0.0
2018-Feb-14 00:59N 50°15' W 005°27'0 0.0
2018-Feb-14 00:23N 50°15' W 005°27'0 0.0
2018-Feb-13 23:41N 50°15' W 005°27'0 0.0
2018-Feb-13 23:30N 50°15' W 005°27'0 0.7
2018-Feb-13 23:00N 50°15' W 005°27'2 3.7
2018-Feb-13 22:30N 50°16' W 005°29'4 8.0
2018-Feb-13 22:00N 50°19' W 005°24'4 8.2
2018-Feb-13 21:30N 50°22' W 005°20'510.5
2018-Feb-13 21:00N 50°27' W 005°24'510.6
2018-Feb-13 20:30N 50°32' W 005°27'510.3
2018-Feb-13 20:00N 50°37' W 005°30'5 9.6
2018-Feb-13 19:30N 50°40' W 005°24'5 9.5
2018-Feb-13 19:00N 50°43' W 005°18'5 9.1
2018-Feb-13 18:30N 50°45' W 005°12'4 8.7
2018-Feb-13 18:00N 50°48' W 005°06'4 8.1
2018-Feb-13 17:30N 50°49' W 005°01'4 8.1
2018-Feb-13 17:00N 50°51' W 004°55'4 7.8
2018-Feb-13 16:30N 50°52' W 004°49'4 7.4
2018-Feb-13 16:00N 50°53' W 004°43'3 5.7
2018-Feb-13 15:30N 50°56' W 004°42'5 9.9
2018-Feb-13 15:00N 51°01' W 004°45'3 5.7
2018-Feb-13 14:30N 51°03' W 004°42'3 6.4
2018-Feb-13 14:00N 51°04' W 004°38'3 6.3
2018-Feb-13 13:30N 51°06' W 004°33'4 7.1
2018-Feb-13 13:00N 51°08' W 004°29'4 7.8
2018-Feb-13 12:30N 51°10' W 004°23'4 7.6
2018-Feb-13 11:55N 51°12' W 004°17'3610.0
2018-Feb-13 08:21N 51°20' W 003°21'3 9.9
2018-Feb-13 08:00N 51°20' W 003°16'2 4.2
2018-Feb-13 07:29N 51°22' W 003°18'0 0.2
2018-Feb-13 07:00N 51°22' W 003°18'1 2.5
2018-Feb-13 06:30N 51°22' W 003°16'6 9.0
2018-Feb-13 05:51N 51°24' W 003°07'3 9.2
2018-Feb-13 05:30N 51°26' W 003°03'4 8.4
2018-Feb-13 05:00N 51°30' W 002°60'3 6.0
2018-Feb-13 04:30N 51°33' W 002°59'1 1.4
2018-Feb-13 03:48N 51°33' W 002°58'0 0.0
2018-Feb-13 03:30N 51°33' W 002°58'0 0.0
2018-Feb-12 18:15N 51°33' W 002°58'0 0.0
2018-Feb-12 17:45N 51°33' W 002°58'0 0.0
2018-Feb-12 17:27N 51°33' W 002°58'0 0.0
2018-Feb-12 16:57N 51°33' W 002°58'0 0.0
2018-Feb-12 16:30N 51°33' W 002°58'0 0.0
2018-Feb-12 15:00N 51°33' W 002°58'0 0.0
2018-Feb-12 14:30N 51°33' W 002°58'0 0.0
2018-Feb-12 14:00N 51°33' W 002°58'0 0.0
2018-Feb-12 13:30N 51°33' W 002°58'0 0.0
2018-Feb-12 13:00N 51°33' W 002°58'0 0.0
2018-Feb-12 12:30N 51°33' W 002°58'0 0.0
2018-Feb-12 12:00N 51°33' W 002°58'0 0.0
2018-Feb-12 11:30N 51°33' W 002°58'0 0.0
2018-Feb-12 11:00N 51°33' W 002°58'0 0.0
2018-Feb-12 10:30N 51°33' W 002°58'0 0.0
2018-Feb-12 10:00N 51°33' W 002°58'0 0.0
2018-Feb-12 09:30N 51°33' W 002°58'0 0.0
2018-Feb-12 09:00N 51°33' W 002°58'0 0.0
2018-Feb-12 08:30N 51°33' W 002°58'0 0.0
2018-Feb-12 08:00N 51°33' W 002°58'0 0.0
2018-Feb-12 07:30N 51°33' W 002°58'0 0.0
2018-Feb-12 04:42N 51°33' W 002°58'0 0.0
2018-Feb-12 04:30N 51°33' W 002°58'0 0.0
2018-Feb-12 03:54N 51°33' W 002°58'0 0.0
2018-Feb-12 01:57N 51°33' W 002°58'0 0.0
2018-Feb-12 00:57N 51°33' W 002°58'0 0.0
2018-Feb-12 00:27N 51°33' W 002°58'0 0.0
2018-Feb-11 23:57N 51°33' W 002°58'0 0.0
2018-Feb-11 23:27N 51°33' W 002°58'0 0.0
2018-Feb-11 22:51N 51°33' W 002°58'0 0.0
2018-Feb-11 22:21N 51°33' W 002°58'0 0.0
2018-Feb-11 22:00N 51°33' W 002°58'0 0.0
2018-Feb-11 21:24N 51°33' W 002°58'0 0.0
2018-Feb-11 20:51N 51°33' W 002°58'0 0.0
2018-Feb-11 20:27N 51°33' W 002°58'0 0.0
2018-Feb-11 19:57N 51°33' W 002°58'0 0.0
2018-Feb-11 19:27N 51°33' W 002°58'0 0.0
2018-Feb-11 19:00N 51°33' W 002°58'0 0.0
2018-Feb-11 13:42N 51°33' W 002°58'0 0.0
2018-Feb-11 13:30N 51°33' W 002°58'0 0.0
2018-Feb-11 13:00N 51°33' W 002°58'0 0.0
2018-Feb-11 11:42N 51°33' W 002°58'0 0.0
2018-Feb-11 11:24N 51°33' W 002°58'0 0.0
2018-Feb-11 10:54N 51°33' W 002°58'0 0.0
2018-Feb-11 10:30N 51°33' W 002°58'0 0.0
2018-Feb-11 10:00N 51°33' W 002°58'0 0.0
2018-Feb-11 09:30N 51°33' W 002°58'0 0.0
2018-Feb-11 09:00N 51°33' W 002°58'0 0.0
2018-Feb-11 08:24N 51°33' W 002°58'0 0.0
2018-Feb-11 08:00N 51°33' W 002°58'0 0.0
2018-Feb-11 07:30N 51°33' W 002°58'0 0.0
2018-Feb-11 06:30N 51°33' W 002°58'0 0.0
2018-Feb-11 03:09N 51°33' W 002°58'0 0.0
2018-Feb-10 23:30N 51°33' W 002°58'0 0.0
2018-Feb-10 22:48N 51°33' W 002°58'0 0.0
2018-Feb-10 22:18N 51°33' W 002°58'0 0.0
2018-Feb-10 20:00N 51°33' W 002°58'0 0.0
2018-Feb-10 15:45N 51°33' W 002°58'0 0.0
2018-Feb-10 12:42N 51°33' W 002°58'0 0.0
2018-Feb-10 12:30N 51°33' W 002°58'0 0.0
2018-Feb-10 12:00N 51°33' W 002°58'0 0.0
2018-Feb-10 11:30N 51°33' W 002°58'0 0.0
2018-Feb-10 11:00N 51°33' W 002°58'0 0.0
2018-Feb-10 10:30N 51°33' W 002°58'0 0.0
2018-Feb-10 10:00N 51°33' W 002°58'0 0.0
2018-Feb-10 09:30N 51°33' W 002°58'0 0.0
2018-Feb-10 08:54N 51°33' W 002°58'0 0.0
2018-Feb-10 08:30N 51°33' W 002°58'0 0.0
2018-Feb-10 08:00N 51°33' W 002°58'0 0.0
2018-Feb-10 07:30N 51°33' W 002°58'0 0.0
2018-Feb-10 07:00N 51°33' W 002°58'0 0.0
2018-Feb-10 06:30N 51°33' W 002°58'0 0.0
2018-Feb-10 06:00N 51°33' W 002°58'0 0.0
2018-Feb-10 05:30N 51°33' W 002°58'0 0.0
2018-Feb-10 05:00N 51°33' W 002°58'0 0.0
2018-Feb-10 04:30N 51°33' W 002°58'0 0.0
2018-Feb-10 04:00N 51°33' W 002°58'0 0.0
2018-Feb-10 03:30N 51°33' W 002°58'0 0.0
2018-Feb-10 03:00N 51°33' W 002°58'0 0.0
2018-Feb-10 02:30N 51°33' W 002°58'0 0.0
2018-Feb-10 02:00N 51°33' W 002°58'0 0.0
2018-Feb-10 01:30N 51°33' W 002°58'0 0.0
2018-Feb-10 01:00N 51°33' W 002°58'0 0.0
2018-Feb-10 00:30N 51°33' W 002°58'0 0.0
2018-Feb-10 00:00N 51°33' W 002°58'0 0.0
2018-Feb-09 23:30N 51°33' W 002°58'0 0.0
2018-Feb-09 23:00N 51°33' W 002°58'0 0.0
2018-Feb-09 22:45N 51°33' W 002°58'79 2.2
2018-Feb-08 10:30N 50°56' W 004°49'713.2
2018-Feb-08 10:00N 50°52' W 004°57'1313.2
2018-Feb-08 09:00N 50°43' W 005°12'713.2
2018-Feb-08 08:30N 50°39' W 005°20'713.2
2018-Feb-08 08:00N 50°34' W 005°28'613.0
2018-Feb-08 07:30N 50°30' W 005°36'612.9
2018-Feb-08 07:00N 50°26' W 005°43'612.8
2018-Feb-08 06:30N 50°21' W 005°51'46 8.1
2018-Feb-08 00:45N 49°54' W 004°52'411.6
2018-Feb-08 00:24N 49°55' W 004°46'511.4
2018-Feb-07 23:59N 49°56' W 004°39'511.0
2018-Feb-07 23:30N 49°58' W 004°32'511.0
2018-Feb-07 23:00N 49°59' W 004°23'  

Dump ship's entire track history